Time;durP1;ratioP1;P1;durP2;ratioP2;P2;SDS_P1;SDS_P2;PMS_P1;PMS_P2;Temp;Humidity;BMP_temperature;BMP_pressure;BME280_temperature;BME280_humidity;BME280_pressure;Samples;Min_cycle;Max_cycle;Signal;HPM_P1;HPM_P2
2023/06/26 00:00:41;;;;;;;14.20;8.18;;;21.40;99.90;;;;;;5037899;28;20548;-68
2023/06/26 00:03:07;;;;;;;16.33;9.07;;;21.40;99.90;;;;;;5038162;28;20029;-69
2023/06/26 00:05:34;;;;;;;17.35;8.75;;;21.40;99.90;;;;;;5037683;28;20032;-69
2023/06/26 00:08:00;;;;;;;17.38;9.27;;;21.40;99.90;;;;;;5038876;28;20017;-69
2023/06/26 00:10:27;;;;;;;12.98;8.45;;;21.40;99.90;;;;;;5038749;28;20029;-69
2023/06/26 00:12:53;;;;;;;16.73;7.70;;;21.40;99.90;;;;;;5038627;28;20428;-68
2023/06/26 00:15:19;;;;;;;13.48;8.52;;;21.30;99.90;;;;;;5036731;28;20394;-69
2023/06/26 00:17:45;;;;;;;14.30;8.30;;;21.30;99.90;;;;;;5036960;28;20025;-69
2023/06/26 00:20:11;;;;;;;15.75;8.75;;;21.30;99.90;;;;;;5038180;28;20065;-68
2023/06/26 00:22:40;;;;;;;14.43;9.05;;;21.30;99.90;;;;;;5038343;28;20032;-69
2023/06/26 00:25:06;;;;;;;11.85;8.48;;;21.30;99.90;;;;;;5038105;28;20017;-69
2023/06/26 00:27:32;;;;;;;17.70;8.30;;;21.30;99.90;;;;;;5038046;28;20040;-69
2023/06/26 00:29:57;;;;;;;14.20;7.65;;;21.30;99.90;;;;;;5037889;28;20014;-69
2023/06/26 00:32:23;;;;;;;14.38;7.57;;;21.30;99.90;;;;;;5037957;28;20029;-69
2023/06/26 00:34:49;;;;;;;15.57;8.70;;;21.30;99.90;;;;;;5038102;28;20028;-69
2023/06/26 00:37:14;;;;;;;21.42;8.52;;;21.30;99.90;;;;;;5037980;28;20104;-68
2023/06/26 00:39:40;;;;;;;14.40;8.07;;;21.20;99.90;;;;;;5037800;28;20026;-69
2023/06/26 00:42:06;;;;;;;18.48;8.15;;;21.20;99.90;;;;;;5037347;28;20038;-69
2023/06/26 00:44:32;;;;;;;18.23;9.25;;;21.20;99.90;;;;;;5037572;28;20053;-68
2023/06/26 00:46:58;;;;;;;17.42;9.07;;;21.20;99.90;;;;;;5037844;28;20056;-69
2023/06/26 00:49:24;;;;;;;11.95;8.65;;;21.20;99.90;;;;;;5037876;28;20029;-69
2023/06/26 00:51:50;;;;;;;15.48;9.68;;;21.20;99.90;;;;;;5036494;28;20021;-68
2023/06/26 00:54:19;;;;;;;13.55;7.53;;;21.20;99.90;;;;;;5037980;28;20029;-69
2023/06/26 00:56:46;;;;;;;18.27;9.60;;;21.20;99.90;;;;;;5037599;28;20025;-69
2023/06/26 00:59:12;;;;;;;18.85;9.00;;;21.20;99.90;;;;;;5037526;28;20452;-68
2023/06/26 01:01:38;;;;;;;22.40;9.48;;;21.20;99.90;;;;;;5037287;28;20091;-69
2023/06/26 01:04:05;;;;;;;13.85;8.90;;;21.20;99.90;;;;;;5037325;28;20108;-69
2023/06/26 01:06:35;;;;;;;15.77;9.07;;;21.10;99.90;;;;;;5037389;28;20025;-68
2023/06/26 01:09:02;;;;;;;15.82;9.20;;;21.10;99.90;;;;;;5037376;28;20049;-68
2023/06/26 01:11:28;;;;;;;17.00;9.70;;;21.10;99.90;;;;;;5037322;28;20112;-69
2023/06/26 01:13:55;;;;;;;13.32;9.55;;;21.10;99.90;;;;;;5037041;28;20049;-69
2023/06/26 01:16:23;;;;;;;14.27;8.23;;;21.10;99.90;;;;;;5037079;28;20441;-69
2023/06/26 01:18:49;;;;;;;12.10;7.38;;;21.10;99.90;;;;;;5035962;28;20041;-68
2023/06/26 01:21:15;;;;;;;18.08;8.95;;;21.10;99.90;;;;;;5037024;28;20523;-69
2023/06/26 01:24:27;;;;;;;14.27;9.07;;;21.10;99.90;;;;;;5037078;28;20075;-69
2023/06/26 01:26:53;;;;;;;14.30;7.88;;;21.10;99.90;;;;;;5027179;28;20091;-69
2023/06/26 01:29:20;;;;;;;13.65;8.45;;;21.10;99.90;;;;;;5037001;28;20520;-69
2023/06/26 01:31:49;;;;;;;13.43;8.20;;;21.10;99.90;;;;;;5036749;28;20025;-69
2023/06/26 01:34:17;;;;;;;13.05;8.35;;;21.00;99.90;;;;;;5028991;28;20036;-68
2023/06/26 01:36:43;;;;;;;17.58;8.02;;;21.00;99.90;;;;;;5036897;28;20436;-69
2023/06/26 01:39:09;;;;;;;16.10;8.02;;;21.00;99.90;;;;;;5036858;28;20100;-69
2023/06/26 01:41:35;;;;;;;11.55;7.55;;;21.00;99.90;;;;;;5036868;28;20092;-68
2023/06/26 01:44:06;;;;;;;14.82;8.73;;;21.00;99.90;;;;;;5036983;28;20053;-69
2023/06/26 01:46:51;;;;;;;14.65;8.60;;;20.90;99.90;;;;;;5036581;28;20108;-69
2023/06/26 01:49:40;;;;;;;14.07;8.27;;;20.90;99.90;;;;;;5036798;28;20363;-69
2023/06/26 01:52:27;;;;;;;15.35;8.35;;;20.90;99.90;;;;;;5030758;28;20067;-69
2023/06/26 01:55:23;;;;;;;11.98;8.10;;;20.90;99.90;;;;;;5035807;28;20028;-69
2023/06/26 01:57:55;;;;;;;12.82;8.63;;;20.90;99.90;;;;;;5030576;28;20037;-69
2023/06/26 02:00:23;;;;;;;14.65;8.57;;;20.90;99.90;;;;;;5036403;28;20128;-69
2023/06/26 02:02:48;;;;;;;13.02;8.52;;;20.90;99.90;;;;;;5036586;28;20068;-69
2023/06/26 02:05:14;;;;;;;17.55;9.38;;;20.90;99.90;;;;;;5036399;28;20026;-69
2023/06/26 02:07:40;;;;;;;13.80;9.00;;;20.80;99.90;;;;;;5036684;28;20031;-69
2023/06/26 02:10:07;;;;;;;14.45;8.88;;;20.80;99.90;;;;;;5036445;28;20013;-69
2023/06/26 02:12:34;;;;;;;14.85;8.75;;;20.80;99.90;;;;;;5036441;28;20026;-69
2023/06/26 02:15:00;;;;;;;14.95;8.90;;;20.70;99.90;;;;;;5036037;28;20026;-69
2023/06/26 02:17:26;;;;;;;12.13;8.45;;;20.70;99.90;;;;;;5036389;28;20037;-69
2023/06/26 02:19:51;;;;;;;14.88;8.63;;;20.70;99.90;;;;;;5036362;28;20069;-69
2023/06/26 02:22:17;;;;;;;13.50;8.45;;;20.70;99.90;;;;;;5036429;28;20029;-68
2023/06/26 02:24:43;;;;;;;13.95;9.13;;;20.70;99.90;;;;;;5036432;28;20021;-69
2023/06/26 02:27:09;;;;;;;13.30;9.07;;;20.70;99.90;;;;;;5036247;28;20017;-69
2023/06/26 02:29:36;;;;;;;16.15;9.52;;;20.70;99.90;;;;;;5036374;28;20029;-69
2023/06/26 02:32:02;;;;;;;18.17;9.75;;;20.70;99.90;;;;;;5036266;28;20030;-69
2023/06/26 02:34:27;;;;;;;17.60;10.05;;;20.70;99.90;;;;;;5036443;28;20549;-68
2023/06/26 02:36:56;;;;;;;15.73;9.55;;;20.70;99.90;;;;;;5036399;28;20065;-69
2023/06/26 02:39:22;;;;;;;18.70;9.90;;;20.60;99.90;;;;;;5036209;28;20021;-69
2023/06/26 02:41:48;;;;;;;15.43;8.70;;;20.60;99.90;;;;;;5036296;28;20452;-69
2023/06/26 02:44:14;;;;;;;12.30;9.20;;;20.60;99.90;;;;;;5036220;28;20104;-68
2023/06/26 02:46:40;;;;;;;17.38;10.75;;;20.60;99.90;;;;;;5036167;28;20037;-68
2023/06/26 02:49:06;;;;;;;21.13;9.35;;;20.60;99.90;;;;;;5036350;28;20018;-69
2023/06/26 02:51:33;;;;;;;14.25;10.07;;;20.50;99.90;;;;;;5036166;28;20029;-68
2023/06/26 02:53:59;;;;;;;16.55;10.40;;;20.60;99.90;;;;;;5036215;28;20028;-69
2023/06/26 02:56:28;;;;;;;17.15;9.32;;;20.60;99.90;;;;;;5035970;28;20030;-69
2023/06/26 02:58:54;;;;;;;18.48;11.00;;;20.60;99.90;;;;;;5034799;28;20393;-69
2023/06/26 03:01:20;;;;;;;20.77;10.82;;;20.60;99.90;;;;;;5035601;28;20409;-69
2023/06/26 03:03:46;;;;;;;14.73;10.07;;;20.50;99.90;;;;;;5036135;28;20088;-68
2023/06/26 03:06:12;;;;;;;14.18;9.95;;;20.50;99.90;;;;;;5037213;28;20071;-68
2023/06/26 03:08:41;;;;;;;13.82;10.30;;;20.50;99.90;;;;;;5039540;28;20021;-69
2023/06/26 03:11:10;;;;;;;16.75;9.80;;;20.50;99.90;;;;;;5039335;28;20540;-68
2023/06/26 03:13:36;;;;;;;20.02;10.32;;;20.50;99.90;;;;;;5039583;28;20022;-69
2023/06/26 03:16:03;;;;;;;18.48;9.95;;;20.50;99.90;;;;;;5039166;28;20395;-69
2023/06/26 03:18:29;;;;;;;14.38;10.25;;;20.60;99.90;;;;;;5038164;28;20489;-68
2023/06/26 03:20:56;;;;;;;13.60;9.75;;;20.50;99.90;;;;;;5039502;28;20053;-69
2023/06/26 03:23:23;;;;;;;16.52;10.05;;;20.50;99.90;;;;;;5039426;28;20084;-69
2023/06/26 03:25:49;;;;;;;22.05;9.85;;;20.50;99.90;;;;;;5039271;28;20462;-69
2023/06/26 03:28:15;;;;;;;13.05;9.35;;;20.50;99.90;;;;;;5039405;28;20053;-68
2023/06/26 03:30:41;;;;;;;16.35;9.55;;;20.50;99.90;;;;;;5039145;28;20093;-69
2023/06/26 03:33:07;;;;;;;17.25;10.20;;;20.50;99.90;;;;;;5039169;28;20053;-69
2023/06/26 03:35:32;;;;;;;14.32;10.15;;;20.50;99.90;;;;;;5037892;28;20026;-69
2023/06/26 03:37:58;;;;;;;17.35;9.93;;;20.50;99.90;;;;;;5037852;28;20524;-69
2023/06/26 03:40:24;;;;;;;18.80;9.82;;;20.50;99.90;;;;;;5039080;28;20026;-68
2023/06/26 03:42:50;;;;;;;15.82;9.13;;;20.50;99.90;;;;;;5039142;28;20447;-69
2023/06/26 03:45:15;;;;;;;20.63;10.13;;;20.50;99.90;;;;;;5038642;28;20021;-69
2023/06/26 03:47:41;;;;;;;16.98;9.32;;;20.50;99.90;;;;;;5039110;28;20367;-69
2023/06/26 03:50:07;;;;;;;16.13;9.82;;;20.50;99.90;;;;;;5038787;28;20017;-69
2023/06/26 03:52:33;;;;;;;17.08;9.77;;;20.50;99.90;;;;;;5039040;28;20022;-69
2023/06/26 03:55:00;;;;;;;18.65;10.20;;;20.50;99.90;;;;;;5038779;28;20040;-69
2023/06/26 03:57:25;;;;;;;27.63;10.50;;;20.50;99.90;;;;;;5038968;28;20072;-69
2023/06/26 03:59:53;;;;;;;16.27;9.55;;;20.50;99.90;;;;;;5038513;28;20041;-69
2023/06/26 04:02:18;;;;;;;17.77;9.23;;;20.50;99.90;;;;;;5038690;28;20022;-69
2023/06/26 04:04:44;;;;;;;24.08;9.45;;;20.50;99.90;;;;;;5038650;28;20028;-69
2023/06/26 04:07:10;;;;;;;16.33;9.55;;;20.50;99.90;;;;;;5038668;28;20085;-69
2023/06/26 04:09:35;;;;;;;18.52;9.88;;;20.50;99.90;;;;;;5038589;28;20070;-69
2023/06/26 04:12:02;;;;;;;12.68;8.95;;;20.50;99.90;;;;;;5038477;28;20436;-68
2023/06/26 04:14:27;;;;;;;18.55;9.18;;;20.50;99.90;;;;;;5038082;28;20029;-69
2023/06/26 04:16:53;;;;;;;15.85;10.35;;;20.40;99.90;;;;;;5037671;28;20029;-69
2023/06/26 04:19:19;;;;;;;19.92;9.80;;;20.40;99.90;;;;;;5038074;28;20033;-69
2023/06/26 04:21:45;;;;;;;20.58;10.80;;;20.40;99.90;;;;;;5038583;28;20061;-69
2023/06/26 04:24:10;;;;;;;20.73;10.73;;;20.40;99.90;;;;;;5036935;28;20037;-68
2023/06/26 04:26:36;;;;;;;14.38;10.57;;;20.40;99.90;;;;;;5038140;28;20017;-69
2023/06/26 04:29:03;;;;;;;17.15;10.20;;;20.40;99.90;;;;;;5038256;28;20079;-69
2023/06/26 04:31:28;;;;;;;18.23;10.10;;;20.40;99.90;;;;;;5037792;28;20389;-69
2023/06/26 04:33:55;;;;;;;14.52;10.00;;;20.40;99.90;;;;;;5038126;28;20147;-69
2023/06/26 04:36:20;;;;;;;18.05;10.68;;;20.40;99.90;;;;;;5038010;28;20024;-69
2023/06/26 04:38:48;;;;;;;13.05;9.80;;;20.40;99.90;;;;;;5038128;28;20021;-68
2023/06/26 04:41:14;;;;;;;17.20;9.43;;;20.50;99.90;;;;;;5036407;28;20505;-68
2023/06/26 04:43:40;;;;;;;18.27;10.18;;;20.50;99.90;;;;;;5037946;28;20025;-69
2023/06/26 04:46:06;;;;;;;18.50;10.35;;;20.50;99.90;;;;;;5037692;28;20045;-69
2023/06/26 04:48:32;;;;;;;19.35;9.73;;;20.50;99.90;;;;;;5037967;28;20108;-69
2023/06/26 04:50:58;;;;;;;15.70;9.55;;;20.50;99.90;;;;;;5037838;28;20028;-69
2023/06/26 04:53:24;;;;;;;16.98;10.02;;;20.50;99.90;;;;;;5037904;28;20021;-69
2023/06/26 04:55:51;;;;;;;16.40;9.02;;;20.50;99.90;;;;;;5037882;28;20624;-69
2023/06/26 04:58:16;;;;;;;14.80;10.32;;;20.50;99.90;;;;;;5036180;28;20079;-69
2023/06/26 05:00:43;;;;;;;14.95;10.40;;;20.50;99.90;;;;;;5037474;28;20028;-69
2023/06/26 05:03:13;;;;;;;15.65;9.13;;;20.50;99.90;;;;;;5037530;28;20465;-69
2023/06/26 05:05:38;;;;;;;17.30;9.57;;;20.50;99.90;;;;;;5036401;28;20458;-69
2023/06/26 05:08:33;;;;;;;16.70;10.15;;;20.60;99.90;;;;;;5037402;28;20248;-69
2023/06/26 05:10:59;;;;;;;13.98;8.32;;;20.60;99.90;;;;;;5028473;28;20044;-69
2023/06/26 05:13:26;;;;;;;15.23;10.35;;;20.60;99.90;;;;;;5036739;28;20097;-69
2023/06/26 05:15:52;;;;;;;19.17;8.65;;;20.60;99.90;;;;;;5037121;28;20053;-69
2023/06/26 05:18:18;;;;;;;12.98;8.20;;;20.60;99.90;;;;;;5034928;28;20208;-69
2023/06/26 05:20:45;;;;;;;13.65;8.77;;;20.70;99.90;;;;;;5024596;28;20068;-69
2023/06/26 05:23:13;;;;;;;16.58;9.57;;;20.70;99.90;;;;;;5037149;28;20068;-69
2023/06/26 05:25:40;;;;;;;13.18;10.63;;;20.70;99.90;;;;;;5035499;28;20021;-69
2023/06/26 05:28:08;;;;;;;14.82;8.73;;;20.70;99.90;;;;;;5036735;28;20018;-69
2023/06/26 05:30:36;;;;;;;15.13;8.82;;;20.70;99.90;;;;;;5036808;28;20022;-69
2023/06/26 05:33:03;;;;;;;15.40;8.88;;;20.70;99.90;;;;;;5037049;28;20104;-69
2023/06/26 05:35:30;;;;;;;20.50;9.23;;;20.80;99.90;;;;;;5037022;28;20490;-69
2023/06/26 05:37:57;;;;;;;14.65;8.25;;;20.80;99.90;;;;;;5036770;28;20017;-69
2023/06/26 05:40:23;;;;;;;12.88;8.35;;;20.70;99.90;;;;;;5036699;28;20029;-69
2023/06/26 05:42:49;;;;;;;17.73;8.00;;;20.70;99.90;;;;;;5036571;28;20022;-68
2023/06/26 05:45:15;;;;;;;12.75;7.95;;;20.70;99.90;;;;;;5036601;28;20049;-69
2023/06/26 05:47:41;;;;;;;16.63;8.93;;;20.70;99.90;;;;;;5036558;28;20026;-69
2023/06/26 05:50:08;;;;;;;12.88;9.68;;;20.70;99.90;;;;;;5025459;28;20406;-69
2023/06/26 05:52:35;;;;;;;16.80;8.50;;;20.70;99.90;;;;;;5030991;28;20017;-68
2023/06/26 05:55:02;;;;;;;14.40;8.18;;;20.80;99.90;;;;;;5037015;28;20079;-69
2023/06/26 05:57:29;;;;;;;12.20;7.82;;;20.80;99.90;;;;;;5036645;28;20032;-70
2023/06/26 05:59:55;;;;;;;11.75;7.43;;;20.70;99.90;;;;;;5032039;28;20018;-69
2023/06/26 06:02:21;;;;;;;10.95;6.72;;;20.70;99.90;;;;;;5033544;28;20018;-71
2023/06/26 06:04:47;;;;;;;11.88;7.55;;;20.80;99.90;;;;;;5034224;28;20370;-70
2023/06/26 06:07:12;;;;;;;12.27;7.47;;;20.70;99.90;;;;;;5035249;28;20022;-70
2023/06/26 06:09:38;;;;;;;9.43;6.93;;;20.70;99.90;;;;;;5029683;28;20512;-70
2023/06/26 06:12:05;;;;;;;8.88;7.10;;;20.70;99.90;;;;;;5033740;28;20025;-70
2023/06/26 06:14:32;;;;;;;8.98;6.43;;;20.70;99.90;;;;;;5032997;28;20172;-70
2023/06/26 06:16:57;;;;;;;12.07;7.70;;;20.80;99.90;;;;;;5034272;28;20049;-70
2023/06/26 06:19:23;;;;;;;9.43;6.80;;;20.80;99.90;;;;;;5035056;28;20033;-70
2023/06/26 06:21:49;;;;;;;8.55;6.35;;;20.90;99.90;;;;;;5034834;28;20029;-70
2023/06/26 06:24:14;;;;;;;11.93;7.35;;;21.00;99.90;;;;;;5030217;28;20029;-69
2023/06/26 06:26:40;;;;;;;6.97;5.53;;;21.00;99.90;;;;;;5034421;28;20025;-70
2023/06/26 06:29:06;;;;;;;11.20;5.85;;;21.10;99.90;;;;;;5035424;28;20049;-70
2023/06/26 06:31:32;;;;;;;7.85;5.82;;;21.10;99.90;;;;;;5034869;28;20033;-71
2023/06/26 06:33:57;;;;;;;9.10;6.38;;;21.10;99.90;;;;;;5035335;28;20032;-69
2023/06/26 06:36:23;;;;;;;9.05;6.10;;;21.10;99.90;;;;;;5035256;28;20028;-70
2023/06/26 06:38:49;;;;;;;9.32;5.32;;;21.10;99.90;;;;;;5035468;28;20021;-71
2023/06/26 06:41:15;;;;;;;11.50;6.40;;;21.10;99.90;;;;;;5033541;28;20049;-71
2023/06/26 06:43:41;;;;;;;10.15;5.80;;;21.10;99.90;;;;;;5037912;28;20042;-71
2023/06/26 06:46:06;;;;;;;11.43;6.10;;;21.10;99.90;;;;;;5038297;28;20017;-70
2023/06/26 06:48:32;;;;;;;8.93;5.72;;;21.20;99.90;;;;;;5039131;28;20049;-70
2023/06/26 06:50:58;;;;;;;8.25;5.68;;;21.10;99.90;;;;;;5037826;28;20022;-71
2023/06/26 06:53:23;;;;;;;8.90;5.88;;;21.20;99.90;;;;;;5039100;28;20168;-70
2023/06/26 06:55:49;;;;;;;10.90;5.40;;;21.20;99.90;;;;;;5038623;28;20029;-71
2023/06/26 06:58:22;;;;;;;8.35;5.72;;;21.40;99.90;;;;;;5037629;28;20424;-70
2023/06/26 07:00:48;;;;;;;8.60;5.65;;;21.50;99.90;;;;;;5034318;28;20474;-71
2023/06/26 07:03:14;;;;;;;8.05;5.60;;;21.50;99.90;;;;;;5038802;28;20025;-71
2023/06/26 07:05:41;;;;;;;9.05;5.43;;;21.50;99.90;;;;;;5038330;28;20068;-70
2023/06/26 07:08:08;;;;;;;8.43;6.07;;;21.50;99.90;;;;;;5036165;28;20402;-70
2023/06/26 07:10:34;;;;;;;11.32;5.95;;;21.50;99.90;;;;;;5036246;28;20528;-69
2023/06/26 07:12:59;;;;;;;13.63;5.97;;;21.60;99.90;;;;;;5032513;28;20043;-69
2023/06/26 07:15:25;;;;;;;13.45;6.20;;;21.60;99.90;;;;;;5031572;28;20063;-69
2023/06/26 07:17:51;;;;;;;10.85;5.88;;;21.60;99.90;;;;;;5025985;28;20833;-69
2023/06/26 07:20:17;;;;;;;12.60;6.32;;;21.70;99.90;;;;;;5030451;28;20057;-69
2023/06/26 07:22:44;;;;;;;10.30;6.32;;;21.70;99.90;;;;;;5027426;28;20132;-69
2023/06/26 07:25:11;;;;;;;10.00;6.45;;;21.80;99.90;;;;;;5037463;28;20063;-68
2023/06/26 07:27:40;;;;;;;9.63;5.50;;;21.70;99.90;;;;;;5038274;28;20014;-69
2023/06/26 07:30:08;;;;;;;11.63;6.50;;;21.80;99.90;;;;;;5036724;28;20025;-69
2023/06/26 07:32:34;;;;;;;10.75;6.28;;;21.70;99.90;;;;;;5036609;28;20397;-68
2023/06/26 07:35:00;;;;;;;17.55;6.97;;;21.70;99.90;;;;;;5038446;28;20029;-68
2023/06/26 07:37:25;;;;;;;11.48;6.22;;;21.80;99.90;;;;;;5039138;28;20029;-69
2023/06/26 07:39:51;;;;;;;9.30;6.53;;;22.00;99.90;;;;;;5022197;28;20037;-69
2023/06/26 07:42:17;;;;;;;13.85;6.43;;;22.10;99.90;;;;;;5030336;28;20037;-69
2023/06/26 07:44:43;;;;;;;8.55;5.95;;;22.10;99.90;;;;;;5032395;28;20030;-69
2023/06/26 07:47:09;;;;;;;15.10;6.07;;;22.20;99.90;;;;;;5035150;28;20017;-69
2023/06/26 07:49:35;;;;;;;14.07;6.47;;;22.20;99.90;;;;;;5037925;28;20025;-69
2023/06/26 07:52:01;;;;;;;10.68;7.10;;;22.30;99.90;;;;;;5033537;28;20037;-69
2023/06/26 07:54:27;;;;;;;9.63;6.40;;;22.30;99.90;;;;;;5037011;28;20025;-69
2023/06/26 07:56:53;;;;;;;13.02;5.95;;;22.40;99.90;;;;;;5032845;28;20145;-68
2023/06/26 07:59:19;;;;;;;11.73;5.90;;;22.40;99.90;;;;;;5036137;28;20022;-69
2023/06/26 08:01:44;;;;;;;10.13;5.70;;;22.50;99.90;;;;;;5037402;28;20041;-69
2023/06/26 08:04:11;;;;;;;9.30;6.25;;;22.50;99.90;;;;;;5037559;28;20076;-69
2023/06/26 08:06:40;;;;;;;11.18;6.22;;;22.60;99.90;;;;;;5036888;28;20029;-69
2023/06/26 08:09:07;;;;;;;11.00;6.30;;;22.60;99.90;;;;;;5037723;28;20029;-69
2023/06/26 08:11:33;;;;;;;14.05;5.55;;;22.80;99.90;;;;;;5037527;28;20025;-71
2023/06/26 08:13:59;;;;;;;8.77;6.13;;;22.80;99.90;;;;;;5037152;28;20379;-70
2023/06/26 08:16:24;;;;;;;7.78;5.50;;;22.90;99.90;;;;;;5036278;28;20078;-71
2023/06/26 08:18:50;;;;;;;8.10;5.40;;;22.90;99.90;;;;;;5037363;28;20079;-69
2023/06/26 08:21:16;;;;;;;11.07;5.68;;;22.80;99.90;;;;;;5037122;28;20059;-69
2023/06/26 08:23:42;;;;;;;11.43;6.05;;;22.90;99.90;;;;;;5037192;28;20029;-70
2023/06/26 08:26:08;;;;;;;12.93;5.32;;;23.00;99.90;;;;;;5036359;28;20097;-69
2023/06/26 08:28:33;;;;;;;9.70;5.80;;;23.10;99.90;;;;;;5037206;28;20010;-70
2023/06/26 08:30:59;;;;;;;16.67;5.75;;;23.10;99.90;;;;;;5036970;28;20052;-69
2023/06/26 08:33:25;;;;;;;9.57;5.65;;;23.20;99.90;;;;;;5033681;28;20025;-70
2023/06/26 08:35:51;;;;;;;12.48;5.43;;;23.20;99.90;;;;;;5036015;28;20052;-69
2023/06/26 08:38:16;;;;;;;9.93;5.28;;;23.10;99.90;;;;;;5037064;28;20017;-71
2023/06/26 08:40:42;;;;;;;10.27;5.13;;;23.20;99.90;;;;;;5037105;28;20029;-70
2023/06/26 08:43:08;;;;;;;9.25;4.95;;;23.10;99.90;;;;;;5036593;28;20036;-69
2023/06/26 08:45:34;;;;;;;10.63;4.88;;;23.30;99.90;;;;;;5035491;28;20052;-70
2023/06/26 08:48:03;;;;;;;10.93;4.53;;;23.40;99.90;;;;;;5036983;28;20026;-70
2023/06/26 08:50:33;;;;;;;11.00;5.28;;;23.40;99.90;;;;;;5035521;28;20032;-69
2023/06/26 08:53:19;;;;;;;8.02;4.75;;;23.40;99.90;;;;;;5036140;28;20021;-70
2023/06/26 08:55:46;;;;;;;17.20;5.53;;;23.40;99.90;;;;;;5034509;28;20571;-69
2023/06/26 08:58:12;;;;;;;10.88;5.50;;;23.40;99.90;;;;;;5034051;28;20013;-69
2023/06/26 09:00:39;;;;;;;8.63;4.47;;;23.50;99.90;;;;;;5036411;28;20035;-70
2023/06/26 09:03:05;;;;;;;9.95;4.80;;;23.50;99.90;;;;;;5036109;28;20606;-70
2023/06/26 09:05:31;;;;;;;9.75;4.60;;;23.40;99.90;;;;;;5035557;28;20033;-70
2023/06/26 09:07:58;;;;;;;6.78;4.63;;;23.50;99.90;;;;;;5036499;28;20112;-69
2023/06/26 09:10:24;;;;;;;7.82;4.40;;;23.50;99.90;;;;;;5036178;28;20104;-70
2023/06/26 09:12:50;;;;;;;6.15;4.43;;;23.50;99.90;;;;;;5034611;28;20049;-70
2023/06/26 09:15:19;;;;;;;8.63;4.57;;;23.60;99.90;;;;;;5035219;28;20032;-70
2023/06/26 09:17:45;;;;;;;11.77;4.97;;;23.50;99.90;;;;;;5033083;28;20172;-69
2023/06/26 09:20:14;;;;;;;12.20;5.05;;;23.40;99.90;;;;;;5035913;28;20108;-69
2023/06/26 09:22:41;;;;;;;10.82;4.20;;;23.40;99.90;;;;;;5036083;28;20033;-70
2023/06/26 09:25:08;;;;;;;8.77;4.65;;;23.50;99.90;;;;;;5033872;28;20037;-69
2023/06/26 09:27:35;;;;;;;8.77;4.38;;;23.70;99.90;;;;;;5035023;28;20024;-69
2023/06/26 09:30:03;;;;;;;10.88;5.28;;;24.00;99.90;;;;;;5036039;28;20037;-69
2023/06/26 09:32:29;;;;;;;9.00;3.80;;;24.20;99.90;;;;;;5036019;28;20017;-68
2023/06/26 09:35:00;;;;;;;9.20;4.97;;;24.20;99.90;;;;;;5034490;28;20033;-69
2023/06/26 09:37:26;;;;;;;12.00;5.00;;;24.00;99.90;;;;;;5036152;28;20096;-70
2023/06/26 09:39:52;;;;;;;11.40;4.97;;;23.80;99.90;;;;;;5035865;28;20045;-69
2023/06/26 09:42:19;;;;;;;7.55;4.03;;;23.50;99.90;;;;;;5034266;28;20021;-69
2023/06/26 09:44:46;;;;;;;10.65;4.50;;;23.30;99.90;;;;;;5035218;28;20036;-69
2023/06/26 09:47:12;;;;;;;12.02;4.97;;;23.10;99.90;;;;;;5032008;28;20032;-69
2023/06/26 09:49:44;;;;;;;7.15;4.55;;;23.10;99.90;;;;;;5034270;28;20025;-69
2023/06/26 09:52:15;;;;;;;10.18;3.88;;;23.10;99.90;;;;;;5035764;28;20496;-69
2023/06/26 09:54:41;;;;;;;;;;;23.10;99.90;;;;;;5036020;28;20087;-69
2023/06/26 09:57:15;;;;;;;6.40;3.53;;;23.30;99.90;;;;;;5033033;28;19917;-70
2023/06/26 09:59:41;;;;;;;7.18;3.83;;;23.40;99.90;;;;;;5035589;28;20079;-69
2023/06/26 10:02:08;;;;;;;5.72;3.30;;;23.60;99.90;;;;;;5034225;28;20034;-70
2023/06/26 10:04:36;;;;;;;8.50;3.53;;;23.60;99.90;;;;;;5031817;28;20022;-69
2023/06/26 10:07:04;;;;;;;7.97;4.53;;;23.80;99.90;;;;;;5035810;28;20083;-69
2023/06/26 10:09:31;;;;;;;7.60;3.97;;;24.00;99.90;;;;;;5035508;28;20021;-69
2023/06/26 10:12:16;;;;;;;8.98;4.30;;;24.20;99.90;;;;;;5034444;28;20104;-70
2023/06/26 10:14:42;;;;;;;8.60;4.28;;;24.30;99.90;;;;;;5032238;28;20021;-69
2023/06/26 10:17:10;;;;;;;6.95;3.42;;;24.60;99.90;;;;;;5037724;28;20089;-68
2023/06/26 10:19:39;;;;;;;7.47;4.03;;;24.80;99.90;;;;;;5039936;28;20065;-69
2023/06/26 10:22:07;;;;;;;9.80;4.18;;;24.70;99.90;;;;;;5035451;28;20601;-69
2023/06/26 10:24:35;;;;;;;9.10;4.18;;;24.30;99.90;;;;;;5039202;28;20032;-68
2023/06/26 10:27:16;;;;;;;10.32;4.70;;;23.80;99.90;;;;;;5038943;28;20462;-68
2023/06/26 10:29:45;;;;;;;9.68;4.63;;;23.70;99.90;;;;;;5031872;28;20121;-68
2023/06/26 10:32:12;;;;;;;8.73;4.78;;;23.60;99.90;;;;;;5034531;28;20100;-69
2023/06/26 10:34:38;;;;;;;8.25;4.20;;;23.60;99.90;;;;;;5038595;28;20022;-69
2023/06/26 10:37:04;;;;;;;5.95;4.43;;;23.80;99.90;;;;;;5038097;28;20028;-69
2023/06/26 10:39:49;;;;;;;9.90;4.68;;;23.90;99.90;;;;;;5039343;28;20030;-68
2023/06/26 10:42:17;;;;;;;9.30;4.65;;;24.20;99.90;;;;;;5035495;28;20059;-69
2023/06/26 10:44:44;;;;;;;6.47;4.30;;;24.70;99.90;;;;;;5038127;28;20037;-69
2023/06/26 10:47:11;;;;;;;7.32;4.18;;;25.20;99.90;;;;;;5039219;28;20524;-68
2023/06/26 10:49:39;;;;;;;10.43;4.95;;;25.30;99.90;;;;;;5039089;28;20033;-68
2023/06/26 10:52:05;;;;;;;11.25;4.47;;;25.10;99.90;;;;;;5039196;28;20018;-68
2023/06/26 10:54:35;;;;;;;10.25;4.78;;;25.00;99.90;;;;;;5036927;28;20034;-68
2023/06/26 10:57:02;;;;;;;11.60;5.82;;;24.90;99.90;;;;;;5037007;28;20033;-67
2023/06/26 10:59:29;;;;;;;8.20;5.00;;;24.90;99.90;;;;;;5036895;28;20089;-68
2023/06/26 11:02:05;;;;;;;8.80;4.60;;;25.10;99.90;;;;;;5037630;28;20025;-68
2023/06/26 11:04:52;;;;;;;7.38;4.25;;;25.60;99.90;;;;;;5038444;28;20037;-69
2023/06/26 11:07:20;;;;;;;7.57;4.63;;;25.60;99.90;;;;;;5037205;28;20017;-68
2023/06/26 11:09:59;;;;;;;8.23;4.75;;;25.40;99.90;;;;;;5039049;28;20022;-69
2023/06/26 11:12:41;;;;;;;10.32;4.60;;;25.10;99.90;;;;;;5031994;28;20083;-69
2023/06/26 11:15:15;;;;;;;8.20;3.83;;;25.20;99.90;;;;;;5036747;28;20091;-68
2023/06/26 11:17:42;;;;;;;7.85;3.70;;;24.90;99.90;;;;;;5038635;28;20057;-69
2023/06/26 11:20:12;;;;;;;10.57;4.90;;;24.80;99.90;;;;;;5038576;28;20064;-68
2023/06/26 11:22:42;;;;;;;7.00;4.45;;;24.60;99.90;;;;;;5038654;28;20160;-68
2023/06/26 11:25:09;;;;;;;6.73;3.63;;;24.60;99.90;;;;;;5037383;28;20040;-68
2023/06/26 11:27:38;;;;;;;8.02;5.20;;;24.60;99.90;;;;;;5037955;28;20036;-68
2023/06/26 11:30:05;;;;;;;10.15;4.35;;;24.40;99.90;;;;;;5038304;28;20104;-68
2023/06/26 11:32:32;;;;;;;9.32;4.03;;;24.50;99.90;;;;;;5036211;28;20033;-68
2023/06/26 11:34:58;;;;;;;8.82;4.72;;;24.60;99.90;;;;;;5036710;28;20029;-68
2023/06/26 11:37:25;;;;;;;10.07;5.15;;;24.40;99.90;;;;;;5038391;28;20025;-68
2023/06/26 11:39:51;;;;;;;8.73;4.78;;;24.00;99.90;;;;;;5036947;28;20053;-69
2023/06/26 11:42:19;;;;;;;9.63;3.97;;;23.80;99.90;;;;;;5038390;28;20022;-68
2023/06/26 11:44:45;;;;;;;10.10;4.78;;;23.60;99.90;;;;;;5036951;28;20378;-68
2023/06/26 11:47:20;;;;;;;8.20;4.85;;;23.40;99.90;;;;;;5037114;28;20036;-69
2023/06/26 11:49:48;;;;;;;8.45;4.70;;;23.20;99.90;;;;;;5034513;28;20033;-69
2023/06/26 11:52:15;;;;;;;9.38;4.53;;;23.30;99.90;;;;;;5035613;28;20025;-68
2023/06/26 11:54:42;;;;;;;7.00;4.68;;;23.40;99.90;;;;;;5033774;28;20041;-68
2023/06/26 11:57:13;;;;;;;10.65;4.88;;;23.60;99.90;;;;;;5033953;28;20401;-68
2023/06/26 11:59:40;;;;;;;7.90;5.05;;;23.80;99.90;;;;;;5019133;28;20053;-68
2023/06/26 12:02:14;;;;;;;8.07;4.05;;;24.00;99.90;;;;;;5037192;28;20056;-68
2023/06/26 12:04:44;;;;;;;7.68;4.20;;;24.20;99.90;;;;;;5033893;28;20022;-68
2023/06/26 12:07:10;;;;;;;5.07;3.78;;;24.20;99.90;;;;;;5036608;28;20080;-68
2023/06/26 12:09:45;;;;;;;7.50;4.18;;;24.60;99.90;;;;;;5036288;28;20394;-68
2023/06/26 12:12:13;;;;;;;7.75;4.70;;;24.90;99.90;;;;;;5034861;28;20499;-67
2023/06/26 12:14:40;;;;;;;5.32;4.13;;;25.00;99.90;;;;;;5033203;28;20441;-67
2023/06/26 12:17:11;;;;;;;6.93;4.10;;;25.20;99.90;;;;;;5035497;28;20595;-68
2023/06/26 12:19:37;;;;;;;;;;;25.30;99.90;;;;;;5037913;28;20056;-69
2023/06/26 12:22:06;;;;;;;8.00;4.00;;;25.10;99.90;;;;;;5037299;28;19905;-69
2023/06/26 12:24:32;;;;;;;8.38;4.47;;;25.20;99.90;;;;;;5036776;28;20025;-67
2023/06/26 12:26:58;;;;;;;7.85;4.15;;;25.40;99.90;;;;;;5036770;28;20092;-68
2023/06/26 12:29:33;;;;;;;6.30;3.75;;;25.50;99.90;;;;;;5019567;28;20040;-67
2023/06/26 12:31:59;;;;;;;7.97;4.70;;;25.50;99.90;;;;;;5036036;28;20010;-67
2023/06/26 12:34:33;;;;;;;7.28;4.88;;;25.50;99.90;;;;;;5037413;28;20426;-67
2023/06/26 12:37:07;;;;;;;7.88;5.10;;;25.30;99.90;;;;;;5026830;28;20026;-67
2023/06/26 12:39:51;;;;;;;8.02;4.18;;;25.30;99.90;;;;;;5035739;28;20434;-68
2023/06/26 12:42:28;;;;;;;10.93;4.70;;;25.20;99.90;;;;;;5031998;28;20061;-67